sensor_id;sensor_type;location;lat;lon;timestamp;P1;durP1;ratioP1;P2;durP2;ratioP2
74064;SDS011;62421;51.412;5.432;2022-10-16T00:00:30;12.43;;;4.18;;
74064;SDS011;62421;51.412;5.432;2022-10-16T00:02:55;9.00;;;3.93;;
74064;SDS011;62421;51.412;5.432;2022-10-16T00:05:21;9.40;;;3.97;;
74064;SDS011;62421;51.412;5.432;2022-10-16T00:07:46;12.50;;;4.00;;
74064;SDS011;62421;51.412;5.432;2022-10-16T00:10:11;7.47;;;3.73;;
74064;SDS011;62421;51.412;5.432;2022-10-16T00:12:37;7.87;;;3.70;;
74064;SDS011;62421;51.412;5.432;2022-10-16T00:15:02;7.87;;;3.70;;
74064;SDS011;62421;51.412;5.432;2022-10-16T00:17:27;13.10;;;3.65;;
74064;SDS011;62421;51.412;5.432;2022-10-16T00:19:55;9.00;;;3.90;;
74064;SDS011;62421;51.412;5.432;2022-10-16T00:22:21;8.27;;;3.10;;
74064;SDS011;62421;51.412;5.432;2022-10-16T00:24:47;9.60;;;3.75;;
74064;SDS011;62421;51.412;5.432;2022-10-16T00:27:12;12.82;;;3.80;;
74064;SDS011;62421;51.412;5.432;2022-10-16T00:29:37;9.20;;;3.30;;
74064;SDS011;62421;51.412;5.432;2022-10-16T00:32:03;8.27;;;3.60;;
74064;SDS011;62421;51.412;5.432;2022-10-16T00:34:28;8.00;;;3.73;;
74064;SDS011;62421;51.412;5.432;2022-10-16T00:36:53;6.13;;;2.77;;
74064;SDS011;62421;51.412;5.432;2022-10-16T00:39:19;9.33;;;3.70;;
74064;SDS011;62421;51.412;5.432;2022-10-16T00:41:44;7.80;;;3.70;;
74064;SDS011;62421;51.412;5.432;2022-10-16T00:47:13;5.50;;;3.00;;
74064;SDS011;62421;51.412;5.432;2022-10-16T00:49:43;8.52;;;2.88;;
74064;SDS011;62421;51.412;5.432;2022-10-16T00:52:08;12.13;;;3.70;;
74064;SDS011;62421;51.412;5.432;2022-10-16T00:54:35;12.15;;;3.15;;
74064;SDS011;62421;51.412;5.432;2022-10-16T00:57:01;12.30;;;3.43;;
74064;SDS011;62421;51.412;5.432;2022-10-16T00:59:30;12.38;;;3.38;;
74064;SDS011;62421;51.412;5.432;2022-10-16T01:01:58;8.88;;;3.45;;
74064;SDS011;62421;51.412;5.432;2022-10-16T01:04:24;6.83;;;2.90;;
74064;SDS011;62421;51.412;5.432;2022-10-16T01:12:14;8.25;;;3.50;;
74064;SDS011;62421;51.412;5.432;2022-10-16T01:14:49;8.57;;;3.43;;
74064;SDS011;62421;51.412;5.432;2022-10-16T01:20:03;8.35;;;3.67;;
74064;SDS011;62421;51.412;5.432;2022-10-16T01:25:41;6.63;;;3.58;;
74064;SDS011;62421;51.412;5.432;2022-10-16T01:28:26;6.90;;;3.10;;
74064;SDS011;62421;51.412;5.432;2022-10-16T01:30:58;7.80;;;2.88;;
74064;SDS011;62421;51.412;5.432;2022-10-16T01:33:28;12.80;;;3.78;;
74064;SDS011;62421;51.412;5.432;2022-10-16T01:36:05;5.72;;;2.80;;
74064;SDS011;62421;51.412;5.432;2022-10-16T01:38:44;6.70;;;2.72;;
74064;SDS011;62421;51.412;5.432;2022-10-16T01:41:15;7.13;;;3.03;;
74064;SDS011;62421;51.412;5.432;2022-10-16T01:43:43;9.00;;;3.15;;
74064;SDS011;62421;51.412;5.432;2022-10-16T01:46:14;8.38;;;3.45;;
74064;SDS011;62421;51.412;5.432;2022-10-16T01:48:43;8.45;;;3.03;;
74064;SDS011;62421;51.412;5.432;2022-10-16T01:51:09;8.50;;;3.63;;
74064;SDS011;62421;51.412;5.432;2022-10-16T01:53:37;8.40;;;2.97;;
74064;SDS011;62421;51.412;5.432;2022-10-16T01:56:04;8.63;;;2.50;;
74064;SDS011;62421;51.412;5.432;2022-10-16T01:58:34;7.10;;;2.63;;
74064;SDS011;62421;51.412;5.432;2022-10-16T02:01:05;6.63;;;2.63;;
74064;SDS011;62421;51.412;5.432;2022-10-16T02:03:34;7.63;;;2.80;;
74064;SDS011;62421;51.412;5.432;2022-10-16T02:06:02;10.40;;;2.90;;
74064;SDS011;62421;51.412;5.432;2022-10-16T02:08:28;6.43;;;3.20;;
74064;SDS011;62421;51.412;5.432;2022-10-16T02:10:56;6.75;;;2.95;;
74064;SDS011;62421;51.412;5.432;2022-10-16T02:13:28;8.52;;;2.53;;
74064;SDS011;62421;51.412;5.432;2022-10-16T02:15:57;7.30;;;3.08;;
74064;SDS011;62421;51.412;5.432;2022-10-16T02:18:23;7.10;;;2.90;;
74064;SDS011;62421;51.412;5.432;2022-10-16T02:21:01;8.80;;;3.03;;
74064;SDS011;62421;51.412;5.432;2022-10-16T02:23:49;4.83;;;2.33;;
74064;SDS011;62421;51.412;5.432;2022-10-16T02:26:30;6.57;;;2.85;;
74064;SDS011;62421;51.412;5.432;2022-10-16T02:29:06;4.55;;;2.50;;
74064;SDS011;62421;51.412;5.432;2022-10-16T02:31:38;6.85;;;2.78;;
74064;SDS011;62421;51.412;5.432;2022-10-16T02:34:08;9.90;;;2.42;;
74064;SDS011;62421;51.412;5.432;2022-10-16T02:36:36;8.00;;;3.50;;
74064;SDS011;62421;51.412;5.432;2022-10-16T02:39:04;4.85;;;2.55;;
74064;SDS011;62421;51.412;5.432;2022-10-16T02:41:30;4.97;;;2.20;;
74064;SDS011;62421;51.412;5.432;2022-10-16T02:43:56;9.45;;;2.95;;
74064;SDS011;62421;51.412;5.432;2022-10-16T02:46:22;8.90;;;2.40;;
74064;SDS011;62421;51.412;5.432;2022-10-16T02:48:47;8.73;;;2.80;;
74064;SDS011;62421;51.412;5.432;2022-10-16T02:51:12;10.53;;;3.10;;
74064;SDS011;62421;51.412;5.432;2022-10-16T02:53:38;5.30;;;2.50;;
74064;SDS011;62421;51.412;5.432;2022-10-16T02:56:03;6.30;;;2.80;;
74064;SDS011;62421;51.412;5.432;2022-10-16T02:58:28;5.78;;;2.85;;
74064;SDS011;62421;51.412;5.432;2022-10-16T03:00:54;7.03;;;3.03;;
74064;SDS011;62421;51.412;5.432;2022-10-16T03:03:20;6.07;;;2.80;;
74064;SDS011;62421;51.412;5.432;2022-10-16T03:05:45;4.88;;;2.80;;
74064;SDS011;62421;51.412;5.432;2022-10-16T03:08:11;6.87;;;2.63;;
74064;SDS011;62421;51.412;5.432;2022-10-16T03:10:37;8.57;;;2.88;;
74064;SDS011;62421;51.412;5.432;2022-10-16T03:13:02;6.13;;;2.77;;
74064;SDS011;62421;51.412;5.432;2022-10-16T03:15:28;5.23;;;2.87;;
74064;SDS011;62421;51.412;5.432;2022-10-16T03:17:54;7.10;;;2.20;;
74064;SDS011;62421;51.412;5.432;2022-10-16T03:20:19;6.80;;;3.15;;
74064;SDS011;62421;51.412;5.432;2022-10-16T03:22:45;7.00;;;2.77;;
74064;SDS011;62421;51.412;5.432;2022-10-16T03:25:10;11.57;;;3.37;;
74064;SDS011;62421;51.412;5.432;2022-10-16T03:27:35;8.23;;;2.60;;
74064;SDS011;62421;51.412;5.432;2022-10-16T03:30:01;6.27;;;2.77;;
74064;SDS011;62421;51.412;5.432;2022-10-16T03:32:27;6.63;;;2.90;;
74064;SDS011;62421;51.412;5.432;2022-10-16T03:34:53;6.20;;;2.88;;
74064;SDS011;62421;51.412;5.432;2022-10-16T03:37:19;6.83;;;3.10;;
74064;SDS011;62421;51.412;5.432;2022-10-16T03:39:44;9.37;;;3.20;;
74064;SDS011;62421;51.412;5.432;2022-10-16T03:42:10;5.30;;;2.80;;
74064;SDS011;62421;51.412;5.432;2022-10-16T03:44:35;10.37;;;2.67;;
74064;SDS011;62421;51.412;5.432;2022-10-16T03:47:00;6.90;;;3.03;;
74064;SDS011;62421;51.412;5.432;2022-10-16T03:49:25;9.37;;;3.50;;
74064;SDS011;62421;51.412;5.432;2022-10-16T03:51:51;6.37;;;3.57;;
74064;SDS011;62421;51.412;5.432;2022-10-16T03:54:16;6.00;;;3.20;;
74064;SDS011;62421;51.412;5.432;2022-10-16T03:56:41;7.17;;;3.57;;
74064;SDS011;62421;51.412;5.432;2022-10-16T03:59:07;8.50;;;2.93;;
74064;SDS011;62421;51.412;5.432;2022-10-16T04:01:32;5.10;;;2.83;;
74064;SDS011;62421;51.412;5.432;2022-10-16T04:03:57;8.40;;;3.20;;
74064;SDS011;62421;51.412;5.432;2022-10-16T04:06:23;6.63;;;3.13;;
74064;SDS011;62421;51.412;5.432;2022-10-16T04:08:48;7.67;;;3.37;;
74064;SDS011;62421;51.412;5.432;2022-10-16T04:11:14;6.10;;;3.13;;
74064;SDS011;62421;51.412;5.432;2022-10-16T04:13:39;7.57;;;3.37;;
74064;SDS011;62421;51.412;5.432;2022-10-16T04:16:04;11.43;;;3.23;;
74064;SDS011;62421;51.412;5.432;2022-10-16T04:18:30;6.73;;;2.73;;
74064;SDS011;62421;51.412;5.432;2022-10-16T04:20:55;6.87;;;2.77;;
74064;SDS011;62421;51.412;5.432;2022-10-16T04:23:21;13.53;;;3.13;;
74064;SDS011;62421;51.412;5.432;2022-10-16T04:25:47;7.93;;;2.95;;
74064;SDS011;62421;51.412;5.432;2022-10-16T04:28:13;14.87;;;3.43;;
74064;SDS011;62421;51.412;5.432;2022-10-16T04:30:38;7.85;;;3.10;;
74064;SDS011;62421;51.412;5.432;2022-10-16T04:33:04;8.37;;;3.13;;
74064;SDS011;62421;51.412;5.432;2022-10-16T04:35:30;11.80;;;3.40;;
74064;SDS011;62421;51.412;5.432;2022-10-16T04:37:57;10.38;;;3.38;;
74064;SDS011;62421;51.412;5.432;2022-10-16T04:40:22;9.63;;;3.67;;
74064;SDS011;62421;51.412;5.432;2022-10-16T04:42:48;7.90;;;3.55;;
74064;SDS011;62421;51.412;5.432;2022-10-16T04:45:13;11.50;;;3.67;;
74064;SDS011;62421;51.412;5.432;2022-10-16T04:47:38;10.90;;;3.53;;
74064;SDS011;62421;51.412;5.432;2022-10-16T04:50:04;8.13;;;3.20;;
74064;SDS011;62421;51.412;5.432;2022-10-16T04:52:29;11.80;;;4.27;;
74064;SDS011;62421;51.412;5.432;2022-10-16T04:54:56;7.50;;;3.35;;
74064;SDS011;62421;51.412;5.432;2022-10-16T04:57:25;9.55;;;3.25;;
74064;SDS011;62421;51.412;5.432;2022-10-16T04:59:51;11.77;;;4.53;;
74064;SDS011;62421;51.412;5.432;2022-10-16T05:02:17;9.40;;;3.50;;
74064;SDS011;62421;51.412;5.432;2022-10-16T05:04:42;7.17;;;3.27;;
74064;SDS011;62421;51.412;5.432;2022-10-16T05:07:08;9.87;;;3.17;;
74064;SDS011;62421;51.412;5.432;2022-10-16T05:09:33;7.43;;;4.37;;
74064;SDS011;62421;51.412;5.432;2022-10-16T05:11:59;6.22;;;3.13;;
74064;SDS011;62421;51.412;5.432;2022-10-16T05:14:24;9.23;;;3.30;;
74064;SDS011;62421;51.412;5.432;2022-10-16T05:16:49;11.27;;;3.30;;
74064;SDS011;62421;51.412;5.432;2022-10-16T05:19:15;13.60;;;2.93;;
74064;SDS011;62421;51.412;5.432;2022-10-16T05:21:40;7.57;;;3.00;;
74064;SDS011;62421;51.412;5.432;2022-10-16T05:24:06;11.87;;;3.20;;
74064;SDS011;62421;51.412;5.432;2022-10-16T05:26:31;10.75;;;3.22;;
74064;SDS011;62421;51.412;5.432;2022-10-16T05:28:56;12.23;;;3.30;;
74064;SDS011;62421;51.412;5.432;2022-10-16T05:31:22;10.00;;;3.27;;
74064;SDS011;62421;51.412;5.432;2022-10-16T05:33:47;7.30;;;2.70;;
74064;SDS011;62421;51.412;5.432;2022-10-16T05:36:13;5.80;;;3.03;;
74064;SDS011;62421;51.412;5.432;2022-10-16T05:38:39;8.57;;;3.70;;
74064;SDS011;62421;51.412;5.432;2022-10-16T05:41:05;7.90;;;3.40;;
74064;SDS011;62421;51.412;5.432;2022-10-16T05:43:31;7.63;;;3.07;;
74064;SDS011;62421;51.412;5.432;2022-10-16T05:46:01;10.85;;;2.85;;
74064;SDS011;62421;51.412;5.432;2022-10-16T05:48:28;7.35;;;3.63;;
74064;SDS011;62421;51.412;5.432;2022-10-16T05:51:01;8.17;;;3.70;;
74064;SDS011;62421;51.412;5.432;2022-10-16T05:53:29;7.13;;;3.40;;
74064;SDS011;62421;51.412;5.432;2022-10-16T05:55:56;8.07;;;4.20;;
74064;SDS011;62421;51.412;5.432;2022-10-16T05:58:22;12.50;;;3.63;;
74064;SDS011;62421;51.412;5.432;2022-10-16T06:01:04;12.30;;;3.65;;
74064;SDS011;62421;51.412;5.432;2022-10-16T06:03:32;11.38;;;4.22;;
74064;SDS011;62421;51.412;5.432;2022-10-16T06:05:58;10.57;;;3.70;;
74064;SDS011;62421;51.412;5.432;2022-10-16T06:08:23;12.70;;;4.05;;
74064;SDS011;62421;51.412;5.432;2022-10-16T06:10:59;11.20;;;4.50;;
74064;SDS011;62421;51.412;5.432;2022-10-16T06:13:29;10.30;;;3.90;;
74064;SDS011;62421;51.412;5.432;2022-10-16T06:15:56;9.50;;;4.03;;
74064;SDS011;62421;51.412;5.432;2022-10-16T06:18:22;9.23;;;3.83;;
74064;SDS011;62421;51.412;5.432;2022-10-16T06:20:48;9.00;;;4.20;;
74064;SDS011;62421;51.412;5.432;2022-10-16T06:23:13;8.80;;;4.40;;
74064;SDS011;62421;51.412;5.432;2022-10-16T06:25:38;10.90;;;4.87;;
74064;SDS011;62421;51.412;5.432;2022-10-16T06:28:04;14.80;;;5.37;;
74064;SDS011;62421;51.412;5.432;2022-10-16T06:30:29;11.97;;;4.70;;
74064;SDS011;62421;51.412;5.432;2022-10-16T06:32:54;8.30;;;4.47;;
74064;SDS011;62421;51.412;5.432;2022-10-16T06:35:20;11.07;;;5.30;;
74064;SDS011;62421;51.412;5.432;2022-10-16T06:37:45;11.10;;;5.57;;
74064;SDS011;62421;51.412;5.432;2022-10-16T06:40:10;9.70;;;5.30;;
74064;SDS011;62421;51.412;5.432;2022-10-16T06:42:36;15.20;;;5.33;;
74064;SDS011;62421;51.412;5.432;2022-10-16T06:45:01;12.53;;;4.97;;
74064;SDS011;62421;51.412;5.432;2022-10-16T06:47:27;15.17;;;6.33;;
74064;SDS011;62421;51.412;5.432;2022-10-16T06:49:52;10.00;;;5.30;;
74064;SDS011;62421;51.412;5.432;2022-10-16T06:52:17;13.20;;;6.27;;
74064;SDS011;62421;51.412;5.432;2022-10-16T06:54:42;12.07;;;5.77;;
74064;SDS011;62421;51.412;5.432;2022-10-16T06:57:08;12.80;;;5.83;;
74064;SDS011;62421;51.412;5.432;2022-10-16T06:59:33;11.17;;;5.77;;
74064;SDS011;62421;51.412;5.432;2022-10-16T07:01:58;15.77;;;5.73;;
74064;SDS011;62421;51.412;5.432;2022-10-16T07:04:24;17.43;;;5.43;;
74064;SDS011;62421;51.412;5.432;2022-10-16T07:06:49;9.93;;;5.67;;
74064;SDS011;62421;51.412;5.432;2022-10-16T07:09:16;13.35;;;5.63;;
74064;SDS011;62421;51.412;5.432;2022-10-16T07:11:42;14.90;;;7.00;;
74064;SDS011;62421;51.412;5.432;2022-10-16T07:14:15;16.43;;;5.87;;
74064;SDS011;62421;51.412;5.432;2022-10-16T07:16:42;16.48;;;5.97;;
74064;SDS011;62421;51.412;5.432;2022-10-16T07:19:08;14.20;;;5.90;;
74064;SDS011;62421;51.412;5.432;2022-10-16T07:21:33;14.02;;;5.13;;
74064;SDS011;62421;51.412;5.432;2022-10-16T07:24:03;14.38;;;5.85;;
74064;SDS011;62421;51.412;5.432;2022-10-16T07:26:38;12.07;;;5.30;;
74064;SDS011;62421;51.412;5.432;2022-10-16T07:29:05;15.55;;;6.85;;
74064;SDS011;62421;51.412;5.432;2022-10-16T07:31:32;17.97;;;5.67;;
74064;SDS011;62421;51.412;5.432;2022-10-16T07:33:58;17.38;;;7.00;;
74064;SDS011;62421;51.412;5.432;2022-10-16T07:36:24;14.90;;;5.03;;
74064;SDS011;62421;51.412;5.432;2022-10-16T07:38:50;14.60;;;5.43;;
74064;SDS011;62421;51.412;5.432;2022-10-16T07:41:16;12.93;;;5.43;;
74064;SDS011;62421;51.412;5.432;2022-10-16T07:43:49;15.75;;;5.13;;
74064;SDS011;62421;51.412;5.432;2022-10-16T07:46:16;18.35;;;5.13;;
74064;SDS011;62421;51.412;5.432;2022-10-16T07:48:43;20.02;;;5.43;;
74064;SDS011;62421;51.412;5.432;2022-10-16T07:51:12;17.23;;;4.80;;
74064;SDS011;62421;51.412;5.432;2022-10-16T07:53:39;14.07;;;5.40;;
74064;SDS011;62421;51.412;5.432;2022-10-16T07:56:05;11.75;;;4.07;;
74064;SDS011;62421;51.412;5.432;2022-10-16T07:58:31;13.20;;;4.33;;
74064;SDS011;62421;51.412;5.432;2022-10-16T08:00:58;11.43;;;4.90;;
74064;SDS011;62421;51.412;5.432;2022-10-16T08:03:24;16.23;;;5.63;;
74064;SDS011;62421;51.412;5.432;2022-10-16T08:05:50;14.60;;;4.77;;
74064;SDS011;62421;51.412;5.432;2022-10-16T08:08:16;11.48;;;4.13;;
74064;SDS011;62421;51.412;5.432;2022-10-16T08:10:43;14.77;;;4.35;;
74064;SDS011;62421;51.412;5.432;2022-10-16T08:13:08;12.60;;;4.73;;
74064;SDS011;62421;51.412;5.432;2022-10-16T08:15:34;8.13;;;3.90;;
74064;SDS011;62421;51.412;5.432;2022-10-16T08:18:00;11.17;;;3.80;;
74064;SDS011;62421;51.412;5.432;2022-10-16T08:20:28;8.88;;;3.50;;
74064;SDS011;62421;51.412;5.432;2022-10-16T08:22:54;11.17;;;3.00;;
74064;SDS011;62421;51.412;5.432;2022-10-16T08:25:23;8.52;;;3.60;;
74064;SDS011;62421;51.412;5.432;2022-10-16T08:27:49;9.20;;;3.40;;
74064;SDS011;62421;51.412;5.432;2022-10-16T08:30:15;10.02;;;3.28;;
74064;SDS011;62421;51.412;5.432;2022-10-16T08:32:41;8.32;;;2.90;;
74064;SDS011;62421;51.412;5.432;2022-10-16T08:35:08;8.40;;;3.20;;
74064;SDS011;62421;51.412;5.432;2022-10-16T08:37:34;5.73;;;2.90;;
74064;SDS011;62421;51.412;5.432;2022-10-16T08:40:00;12.20;;;3.20;;
74064;SDS011;62421;51.412;5.432;2022-10-16T08:50:41;8.30;;;2.80;;
74064;SDS011;62421;51.412;5.432;2022-10-16T08:53:06;10.93;;;2.30;;
74064;SDS011;62421;51.412;5.432;2022-10-16T08:55:42;7.68;;;3.17;;
74064;SDS011;62421;51.412;5.432;2022-10-16T08:58:12;8.07;;;2.03;;
74064;SDS011;62421;51.412;5.432;2022-10-16T09:00:53;12.02;;;2.58;;
74064;SDS011;62421;51.412;5.432;2022-10-16T09:03:24;8.57;;;2.58;;
74064;SDS011;62421;51.412;5.432;2022-10-16T09:17:22;7.00;;;2.30;;
74064;SDS011;62421;51.412;5.432;2022-10-16T09:20:10;14.32;;;2.80;;
74064;SDS011;62421;51.412;5.432;2022-10-16T09:22:37;8.63;;;2.03;;
74064;SDS011;62421;51.412;5.432;2022-10-16T09:25:10;12.80;;;3.03;;
74064;SDS011;62421;51.412;5.432;2022-10-16T09:27:38;9.27;;;1.85;;
74064;SDS011;62421;51.412;5.432;2022-10-16T09:30:21;10.17;;;2.50;;
74064;SDS011;62421;51.412;5.432;2022-10-16T09:32:54;10.20;;;2.13;;
74064;SDS011;62421;51.412;5.432;2022-10-16T09:35:27;10.02;;;2.00;;
74064;SDS011;62421;51.412;5.432;2022-10-16T09:37:58;7.93;;;2.28;;
74064;SDS011;62421;51.412;5.432;2022-10-16T09:42:57;11.63;;;2.77;;
74064;SDS011;62421;51.412;5.432;2022-10-16T09:45:31;8.52;;;2.47;;
74064;SDS011;62421;51.412;5.432;2022-10-16T09:47:56;5.85;;;2.05;;
74064;SDS011;62421;51.412;5.432;2022-10-16T09:50:23;4.47;;;1.60;;
74064;SDS011;62421;51.412;5.432;2022-10-16T09:53:05;6.77;;;2.07;;
74064;SDS011;62421;51.412;5.432;2022-10-16T09:55:36;8.38;;;2.15;;
74064;SDS011;62421;51.412;5.432;2022-10-16T09:58:01;5.67;;;1.80;;
74064;SDS011;62421;51.412;5.432;2022-10-16T10:00:27;6.37;;;1.77;;
74064;SDS011;62421;51.412;5.432;2022-10-16T10:02:52;9.13;;;2.17;;
74064;SDS011;62421;51.412;5.432;2022-10-16T10:05:26;7.47;;;1.67;;
74064;SDS011;62421;51.412;5.432;2022-10-16T10:07:57;7.00;;;1.98;;
74064;SDS011;62421;51.412;5.432;2022-10-16T10:10:28;16.90;;;2.40;;
74064;SDS011;62421;51.412;5.432;2022-10-16T10:12:55;9.70;;;1.90;;
74064;SDS011;62421;51.412;5.432;2022-10-16T10:15:22;8.43;;;2.45;;
74064;SDS011;62421;51.412;5.432;2022-10-16T10:22:52;7.20;;;1.55;;
74064;SDS011;62421;51.412;5.432;2022-10-16T10:53:08;9.77;;;1.70;;
74064;SDS011;62421;51.412;5.432;2022-10-16T11:01:47;7.65;;;1.65;;
74064;SDS011;62421;51.412;5.432;2022-10-16T11:04:34;11.02;;;2.30;;
74064;SDS011;62421;51.412;5.432;2022-10-16T11:07:09;11.82;;;1.80;;
74064;SDS011;62421;51.412;5.432;2022-10-16T11:09:49;11.05;;;2.10;;
74064;SDS011;62421;51.412;5.432;2022-10-16T11:12:20;10.97;;;2.37;;
74064;SDS011;62421;51.412;5.432;2022-10-16T11:20:17;10.48;;;1.67;;
74064;SDS011;62421;51.412;5.432;2022-10-16T11:23:26;10.10;;;1.77;;
74064;SDS011;62421;51.412;5.432;2022-10-16T11:25:56;18.87;;;2.30;;
74064;SDS011;62421;51.412;5.432;2022-10-16T11:28:27;10.05;;;1.85;;
74064;SDS011;62421;51.412;5.432;2022-10-16T11:31:10;17.45;;;2.58;;
74064;SDS011;62421;51.412;5.432;2022-10-16T11:36:33;13.43;;;2.13;;
74064;SDS011;62421;51.412;5.432;2022-10-16T11:41:35;9.73;;;1.40;;
74064;SDS011;62421;51.412;5.432;2022-10-16T11:47:02;9.82;;;2.05;;
74064;SDS011;62421;51.412;5.432;2022-10-16T11:49:36;13.15;;;2.40;;
74064;SDS011;62421;51.412;5.432;2022-10-16T11:52:17;14.70;;;1.93;;
74064;SDS011;62421;51.412;5.432;2022-10-16T11:55:05;8.73;;;1.77;;
74064;SDS011;62421;51.412;5.432;2022-10-16T11:57:50;6.95;;;1.80;;
74064;SDS011;62421;51.412;5.432;2022-10-16T12:02:54;11.68;;;2.08;;
74064;SDS011;62421;51.412;5.432;2022-10-16T12:08:12;6.68;;;1.75;;
74064;SDS011;62421;51.412;5.432;2022-10-16T12:10:40;13.63;;;2.92;;
74064;SDS011;62421;51.412;5.432;2022-10-16T12:18:37;9.03;;;2.03;;
74064;SDS011;62421;51.412;5.432;2022-10-16T12:21:03;13.50;;;1.75;;
74064;SDS011;62421;51.412;5.432;2022-10-16T12:23:33;6.43;;;1.73;;
74064;SDS011;62421;51.412;5.432;2022-10-16T12:26:23;5.85;;;1.50;;
74064;SDS011;62421;51.412;5.432;2022-10-16T12:31:48;9.67;;;1.90;;
74064;SDS011;62421;51.412;5.432;2022-10-16T12:34:21;11.65;;;1.50;;
74064;SDS011;62421;51.412;5.432;2022-10-16T12:36:51;7.85;;;2.20;;
74064;SDS011;62421;51.412;5.432;2022-10-16T12:39:22;10.48;;;1.90;;
74064;SDS011;62421;51.412;5.432;2022-10-16T12:41:59;13.60;;;2.08;;
74064;SDS011;62421;51.412;5.432;2022-10-16T12:44:26;6.97;;;1.70;;
74064;SDS011;62421;51.412;5.432;2022-10-16T12:46:58;10.82;;;1.70;;
74064;SDS011;62421;51.412;5.432;2022-10-16T12:49:48;9.77;;;1.90;;
74064;SDS011;62421;51.412;5.432;2022-10-16T12:52:28;11.65;;;1.83;;
74064;SDS011;62421;51.412;5.432;2022-10-16T12:55:01;8.18;;;1.48;;
74064;SDS011;62421;51.412;5.432;2022-10-16T13:02:51;5.17;;;1.43;;
74064;SDS011;62421;51.412;5.432;2022-10-16T13:06:04;6.82;;;1.27;;
74064;SDS011;62421;51.412;5.432;2022-10-16T13:08:44;5.30;;;1.70;;
74064;SDS011;62421;51.412;5.432;2022-10-16T13:16:34;4.57;;;1.20;;
74064;SDS011;62421;51.412;5.432;2022-10-16T13:25:19;9.93;;;1.80;;
74064;SDS011;62421;51.412;5.432;2022-10-16T13:27:52;8.02;;;2.00;;
74064;SDS011;62421;51.412;5.432;2022-10-16T13:30:30;6.70;;;1.60;;
74064;SDS011;62421;51.412;5.432;2022-10-16T13:33:02;6.65;;;1.20;;
74064;SDS011;62421;51.412;5.432;2022-10-16T13:35:33;7.15;;;1.65;;
74064;SDS011;62421;51.412;5.432;2022-10-16T13:43:28;7.30;;;1.53;;
74064;SDS011;62421;51.412;5.432;2022-10-16T13:46:02;4.72;;;1.30;;
74064;SDS011;62421;51.412;5.432;2022-10-16T13:48:36;8.73;;;1.65;;
74064;SDS011;62421;51.412;5.432;2022-10-16T13:51:02;14.27;;;1.53;;
74064;SDS011;62421;51.412;5.432;2022-10-16T13:53:35;11.10;;;1.48;;
74064;SDS011;62421;51.412;5.432;2022-10-16T13:56:04;8.95;;;1.80;;
74064;SDS011;62421;51.412;5.432;2022-10-16T13:58:31;6.73;;;1.30;;
74064;SDS011;62421;51.412;5.432;2022-10-16T14:01:31;7.40;;;1.73;;
74064;SDS011;62421;51.412;5.432;2022-10-16T14:03:51;6.00;;;1.70;;
74064;SDS011;62421;51.412;5.432;2022-10-16T14:06:18;5.90;;;1.10;;
74064;SDS011;62421;51.412;5.432;2022-10-16T14:09:12;7.28;;;1.40;;
74064;SDS011;62421;51.412;5.432;2022-10-16T14:11:45;5.35;;;1.67;;
74064;SDS011;62421;51.412;5.432;2022-10-16T14:14:13;7.40;;;1.80;;
74064;SDS011;62421;51.412;5.432;2022-10-16T14:16:40;9.13;;;1.57;;
74064;SDS011;62421;51.412;5.432;2022-10-16T14:19:13;4.72;;;1.85;;
74064;SDS011;62421;51.412;5.432;2022-10-16T14:21:43;10.60;;;1.85;;
74064;SDS011;62421;51.412;5.432;2022-10-16T14:24:12;7.82;;;1.42;;
74064;SDS011;62421;51.412;5.432;2022-10-16T14:26:46;4.80;;;1.57;;
74064;SDS011;62421;51.412;5.432;2022-10-16T14:29:14;6.75;;;1.70;;
74064;SDS011;62421;51.412;5.432;2022-10-16T14:31:53;5.38;;;1.73;;
74064;SDS011;62421;51.412;5.432;2022-10-16T14:37:22;10.43;;;2.13;;
74064;SDS011;62421;51.412;5.432;2022-10-16T14:39:50;7.50;;;2.00;;
74064;SDS011;62421;51.412;5.432;2022-10-16T14:42:17;10.02;;;2.05;;
74064;SDS011;62421;51.412;5.432;2022-10-16T14:44:44;6.13;;;2.05;;
74064;SDS011;62421;51.412;5.432;2022-10-16T14:47:16;7.65;;;1.80;;
74064;SDS011;62421;51.412;5.432;2022-10-16T14:49:47;10.90;;;2.88;;
74064;SDS011;62421;51.412;5.432;2022-10-16T14:52:13;11.57;;;3.60;;
74064;SDS011;62421;51.412;5.432;2022-10-16T14:54:39;7.47;;;4.07;;
74064;SDS011;62421;51.412;5.432;2022-10-16T14:57:05;10.30;;;3.30;;
74064;SDS011;62421;51.412;5.432;2022-10-16T14:59:39;8.30;;;2.37;;
74064;SDS011;62421;51.412;5.432;2022-10-16T15:04:53;6.03;;;1.77;;
74064;SDS011;62421;51.412;5.432;2022-10-16T15:07:18;5.70;;;1.80;;
74064;SDS011;62421;51.412;5.432;2022-10-16T15:09:44;6.03;;;1.55;;
74064;SDS011;62421;51.412;5.432;2022-10-16T15:12:09;6.30;;;1.50;;
74064;SDS011;62421;51.412;5.432;2022-10-16T15:14:34;7.97;;;2.10;;
74064;SDS011;62421;51.412;5.432;2022-10-16T15:17:00;4.43;;;1.47;;
74064;SDS011;62421;51.412;5.432;2022-10-16T15:19:25;7.37;;;1.63;;
74064;SDS011;62421;51.412;5.432;2022-10-16T15:21:50;5.43;;;1.63;;
74064;SDS011;62421;51.412;5.432;2022-10-16T15:24:17;9.32;;;1.77;;
74064;SDS011;62421;51.412;5.432;2022-10-16T15:26:43;3.50;;;1.33;;
74064;SDS011;62421;51.412;5.432;2022-10-16T15:29:10;4.57;;;1.80;;
74064;SDS011;62421;51.412;5.432;2022-10-16T15:31:36;4.77;;;1.90;;
74064;SDS011;62421;51.412;5.432;2022-10-16T15:34:02;7.63;;;1.65;;
74064;SDS011;62421;51.412;5.432;2022-10-16T15:36:30;11.93;;;1.93;;
74064;SDS011;62421;51.412;5.432;2022-10-16T15:38:59;4.90;;;1.33;;
74064;SDS011;62421;51.412;5.432;2022-10-16T15:41:25;4.18;;;1.40;;
74064;SDS011;62421;51.412;5.432;2022-10-16T15:43:50;7.87;;;1.50;;
74064;SDS011;62421;51.412;5.432;2022-10-16T15:46:19;5.30;;;1.40;;
74064;SDS011;62421;51.412;5.432;2022-10-16T15:48:47;6.83;;;1.50;;
74064;SDS011;62421;51.412;5.432;2022-10-16T15:51:13;3.55;;;1.50;;
74064;SDS011;62421;51.412;5.432;2022-10-16T15:53:39;4.07;;;1.30;;
74064;SDS011;62421;51.412;5.432;2022-10-16T15:56:05;6.07;;;1.83;;
74064;SDS011;62421;51.412;5.432;2022-10-16T15:58:32;11.03;;;2.03;;
74064;SDS011;62421;51.412;5.432;2022-10-16T16:00:58;5.28;;;1.67;;
74064;SDS011;62421;51.412;5.432;2022-10-16T16:03:28;6.93;;;1.77;;
74064;SDS011;62421;51.412;5.432;2022-10-16T16:05:55;12.10;;;1.77;;
74064;SDS011;62421;51.412;5.432;2022-10-16T16:08:20;5.90;;;1.50;;
74064;SDS011;62421;51.412;5.432;2022-10-16T16:11:03;5.85;;;2.05;;
74064;SDS011;62421;51.412;5.432;2022-10-16T16:13:33;4.32;;;1.30;;
74064;SDS011;62421;51.412;5.432;2022-10-16T16:15:59;8.37;;;1.80;;
74064;SDS011;62421;51.412;5.432;2022-10-16T16:18:24;5.18;;;1.60;;
74064;SDS011;62421;51.412;5.432;2022-10-16T16:20:51;10.40;;;1.87;;
74064;SDS011;62421;51.412;5.432;2022-10-16T16:23:17;8.90;;;1.70;;
74064;SDS011;62421;51.412;5.432;2022-10-16T16:25:42;9.93;;;2.40;;
74064;SDS011;62421;51.412;5.432;2022-10-16T16:28:08;14.30;;;2.10;;
74064;SDS011;62421;51.412;5.432;2022-10-16T16:30:35;5.80;;;2.43;;
74064;SDS011;62421;51.412;5.432;2022-10-16T16:33:01;7.85;;;2.10;;
74064;SDS011;62421;51.412;5.432;2022-10-16T16:35:26;6.70;;;1.87;;
74064;SDS011;62421;51.412;5.432;2022-10-16T16:37:52;7.15;;;2.35;;
74064;SDS011;62421;51.412;5.432;2022-10-16T16:40:17;17.90;;;2.53;;
74064;SDS011;62421;51.412;5.432;2022-10-16T16:42:42;7.57;;;2.00;;
74064;SDS011;62421;51.412;5.432;2022-10-16T16:45:08;5.43;;;1.93;;
74064;SDS011;62421;51.412;5.432;2022-10-16T16:47:34;11.17;;;2.30;;
74064;SDS011;62421;51.412;5.432;2022-10-16T16:49:59;7.72;;;2.35;;
74064;SDS011;62421;51.412;5.432;2022-10-16T16:52:29;6.13;;;1.90;;
74064;SDS011;62421;51.412;5.432;2022-10-16T16:54:55;6.43;;;2.03;;
74064;SDS011;62421;51.412;5.432;2022-10-16T16:57:20;8.37;;;2.57;;
74064;SDS011;62421;51.412;5.432;2022-10-16T16:59:46;8.43;;;2.47;;
74064;SDS011;62421;51.412;5.432;2022-10-16T17:02:11;5.10;;;2.08;;